Aviation Digital Data Service (ADDS)

Output produced by METARs form (0706 UTC 22 January 2021)
found at http://aviationweather.gov/metar/data/
 
KOEO 220655Z AUTO 31007G14KT 10SM CLR M14/M19 A3013 RMK AO2 T11451192